Enchantment of the Seas — C6FZ7 — position and weather

sailwx.info

Track history (hours):
 
Tides and Currents Weather Stations Pressure Air Temp Water Temp Dewpoint Dewpoint Depression Visibility Wind Speed Wind Dir Waves Ship Positions

Enchantment of the Seas (Bahamas)

Last reported at 2017-May-29 16:58 UTC. Time now 2017-May-29 17:00 UTC.
Position N 25°47' W 080°11'.

Type: Passenger vessel. MMSI: 311733000.

Date/timePositionNaut miles runAvg speedWind from/ knotsBaromVisibWave heightAir tempDewpointWater temp
2017-May-29 16:58N 25°47' W 080°11'0 0.0
2017-May-29 16:28N 25°47' W 080°11'0 0.0
2017-May-29 15:58N 25°47' W 080°11'0 0.0
2017-May-29 15:28N 25°47' W 080°11'0 0.0
2017-May-29 14:58N 25°47' W 080°11'0 0.0
2017-May-29 14:28N 25°47' W 080°11'0 0.0
2017-May-29 13:28N 25°47' W 080°11'0 0.0
2017-May-29 12:58N 25°47' W 080°11'0 0.0
2017-May-29 12:28N 25°47' W 080°11'0 0.0
2017-May-29 11:58N 25°47' W 080°11'0 0.0
2017-May-29 11:22N 25°47' W 080°11'0 0.0
2017-May-29 10:57N 25°47' W 080°11'1 3.1
2017-May-29 10:30N 25°46' W 080°09'5 9.0
2017-May-29 10:00N 25°46' W 080°04'611.9
2017-May-29 09:30N 25°49' W 079°58'613.0
2017-May-29 09:01N 25°53' W 079°53'611.9
2017-May-29 08:30N 25°55' W 079°47'612.3
2017-May-29 08:01N 25°58' W 079°40'612.2
2017-May-29 07:31N 26°00' W 079°34'127 5.6
2017-May-28 09:00N 25°12' W 077°24'18 2.6 180 / 101015.810.8 26.525.125.0
2017-May-28 01:54N 25°29' W 077°17'610.5
2017-May-28 01:18N 25°35' W 077°21'50 3.0
2017-May-27 09:00N 25°54' W 078°12'67 8.4 160 / 71016.810.8 27.026.325.0
2017-May-27 01:00N 26°09' W 079°25'5 9.2
2017-May-27 00:26N 26°06' W 079°30'5 9.6
2017-May-26 23:57N 26°04' W 079°34'410.0
2017-May-26 23:30N 26°01' W 079°39'510.5
2017-May-26 23:00N 25°58' W 079°44'510.4
2017-May-26 22:30N 25°56' W 079°48'510.9
2017-May-26 22:00N 25°52' W 079°53'510.8
2017-May-26 21:30N 25°49' W 079°58'510.7
2017-May-26 21:01N 25°46' W 080°03'5 9.3
2017-May-26 20:30N 25°46' W 080°08'2 3.8
2017-May-26 19:58N 25°47' W 080°10'0 0.0
2017-May-26 19:28N 25°47' W 080°10'0 0.0
2017-May-26 18:55N 25°47' W 080°10'0 0.0
2017-May-26 18:28N 25°47' W 080°10'0 0.0
2017-May-26 17:58N 25°47' W 080°10'0 0.0
2017-May-26 17:28N 25°47' W 080°10'0 0.0
2017-May-26 16:58N 25°47' W 080°10'0 0.0
2017-May-26 16:22N 25°47' W 080°10'0 0.0
2017-May-26 15:58N 25°47' W 080°10'0 0.0
2017-May-26 15:28N 25°47' W 080°10'0 0.0
2017-May-26 14:58N 25°47' W 080°10'0 0.0
2017-May-26 14:28N 25°47' W 080°10'0 0.0
2017-May-26 13:22N 25°47' W 080°10'0 0.0
2017-May-26 12:52N 25°47' W 080°10'0 0.0
2017-May-26 12:28N 25°47' W 080°10'0 0.0
2017-May-26 11:58N 25°47' W 080°10'0 0.0
2017-May-26 11:27N 25°47' W 080°10'1 1.6
2017-May-26 11:01N 25°47' W 080°11'3 5.2
2017-May-26 10:31N 25°46' W 080°08'611.3
2017-May-26 10:00N 25°47' W 080°02'5 9.7
2017-May-26 09:30N 25°45' W 079°57'612.4
2017-May-26 09:00N 25°41' W 079°52'713.2
2017-May-26 08:31N 25°35' W 079°48'714.8
2017-May-26 08:01N 25°28' W 079°50'4248.3
2017-May-26 08:00N 25°24' W 079°48'510.1 260 / 61014.610.8 27.124.924.0
2017-May-26 07:31N 25°21' W 079°52'80 3.7
2017-May-25 10:00N 24°30' W 081°00'6214.7 200 / 291010.010.8 27.323.724.0
2017-May-25 05:47N 25°09' W 080°07'514.1
2017-May-25 05:27N 25°12' W 080°04'613.9
2017-May-25 05:00N 25°17' W 079°60'714.0
2017-May-25 04:30N 25°23' W 079°55'714.1
2017-May-25 04:00N 25°28' W 079°50'714.9
2017-May-25 03:30N 25°34' W 079°45'815.8
2017-May-25 03:00N 25°40' W 079°39'1016.2
2017-May-25 02:23N 25°47' W 079°31'616.5
2017-May-25 02:00N 25°52' W 079°26'105 6.2
2017-May-24 09:00N 25°42' W 077°30'12 0.5 180 / 191013.010.8 26.222.725.0
2017-May-23 09:00N 25°30' W 077°30'11712.3 150 / 141014.610.8 25.321.225.0
2017-May-22 23:30N 25°59' W 079°36'611.5
2017-May-22 23:00N 25°56' W 079°42'611.6
2017-May-22 22:31N 25°54' W 079°47'611.5
2017-May-22 22:00N 25°51' W 079°53'510.7
2017-May-22 21:30N 25°49' W 079°59'612.6
2017-May-22 21:00N 25°47' W 080°05'4 8.6
2017-May-22 20:30N 25°46' W 080°10'1 2.2
2017-May-22 20:01N 25°47' W 080°11'0 0.0
2017-May-22 19:30N 25°47' W 080°11'0 0.0
2017-May-22 19:00N 25°47' W 080°11'0 0.0
2017-May-22 18:30N 25°47' W 080°11'0 0.0
2017-May-22 18:00N 25°47' W 080°11'0 0.0
2017-May-22 17:30N 25°47' W 080°11'0 0.0
2017-May-22 17:00N 25°47' W 080°11'0 0.0
2017-May-22 16:24N 25°47' W 080°11'0 0.0
2017-May-22 15:57N 25°47' W 080°11'0 0.0
2017-May-22 15:30N 25°47' W 080°11'0 0.0
2017-May-22 15:00N 25°47' W 080°11'0 0.0
2017-May-22 14:00N 25°47' W 080°11'0 0.0
2017-May-22 13:30N 25°47' W 080°11'0 0.0
2017-May-22 13:00N 25°47' W 080°11'0 0.0
2017-May-22 12:30N 25°47' W 080°11'0 0.0
2017-May-22 12:00N 25°47' W 080°11'0 0.0
2017-May-22 11:30N 25°47' W 080°11'0 0.0
2017-May-22 11:00N 25°47' W 080°11'1 2.9
2017-May-22 10:30N 25°46' W 080°09'4 8.9
2017-May-22 10:00N 25°46' W 080°04'611.3
2017-May-22 09:30N 25°49' W 079°59'611.7
2017-May-22 09:00N 25°52' W 079°53'611.8
2017-May-22 08:30N 25°55' W 079°47'612.1
2017-May-22 08:00N 25°57' W 079°41'612.4
2017-May-22 07:30N 25°60' W 079°35'3713.6
2017-May-22 04:48N 26°09' W 078°55'514.3
2017-May-22 04:28N 26°08' W 078°50'13 0.3
2017-May-20 07:00N 26°06' W 078°36'46 8.9 120 / 161016.410.8 25.721.625.0
2017-May-20 01:50N 26°10' W 079°27'411.2
2017-May-20 01:30N 26°07' W 079°29'7 9.6
2017-May-20 00:46N 26°03' W 079°35'3 8.5
2017-May-20 00:24N 26°01' W 079°38'3 8.4
2017-May-20 00:00N 25°60' W 079°41'4 8.4
2017-May-19 23:30N 25°58' W 079°46'4 8.3
2017-May-19 23:00N 25°56' W 079°50'4 8.7
2017-May-19 22:30N 25°53' W 079°54'4 8.8
2017-May-19 22:00N 25°51' W 079°58'5 9.6
2017-May-19 21:30N 25°48' W 080°02'510.5
2017-May-19 21:01N 25°45' W 080°07'4 7.6
2017-May-19 20:30N 25°47' W 080°11'0 0.3
2017-May-19 19:58N 25°47' W 080°11'0 0.0
2017-May-19 19:28N 25°47' W 080°11'0 0.0
2017-May-19 18:55N 25°47' W 080°11'0 0.0
2017-May-19 18:28N 25°47' W 080°11'0 0.0
2017-May-19 17:58N 25°47' W 080°11'0 0.0
2017-May-19 17:28N 25°47' W 080°11'0 0.0
2017-May-19 16:58N 25°47' W 080°11'  
Track history (hours):
 
Tides and Currents Weather Stations Pressure Air Temp Water Temp Dewpoint Dewpoint Depression Visibility Wind Speed Wind Dir Waves Ship Positions

Enchantment of the Seas (Bahamas)

Last reported at 2017-May-29 16:58 UTC. Time now 2017-May-29 17:00 UTC.
Position N 25°47' W 080°11'.

Type: Passenger vessel. MMSI: 311733000.

Date/timePositionNaut miles runAvg speedWind from/ knotsBaromVisibWave heightAir tempDewpointWater temp
2017-May-29 16:58N 25°47' W 080°11'0 0.0
2017-May-29 16:28N 25°47' W 080°11'0 0.0
2017-May-29 15:58N 25°47' W 080°11'0 0.0
2017-May-29 15:28N 25°47' W 080°11'0 0.0
2017-May-29 14:58N 25°47' W 080°11'0 0.0
2017-May-29 14:28N 25°47' W 080°11'0 0.0
2017-May-29 13:28N 25°47' W 080°11'0 0.0
2017-May-29 12:58N 25°47' W 080°11'0 0.0
2017-May-29 12:28N 25°47' W 080°11'0 0.0
2017-May-29 11:58N 25°47' W 080°11'0 0.0
2017-May-29 11:22N 25°47' W 080°11'0 0.0
2017-May-29 10:57N 25°47' W 080°11'1 3.1
2017-May-29 10:30N 25°46' W 080°09'5 9.0
2017-May-29 10:00N 25°46' W 080°04'611.9
2017-May-29 09:30N 25°49' W 079°58'613.0
2017-May-29 09:01N 25°53' W 079°53'611.9
2017-May-29 08:30N 25°55' W 079°47'612.3
2017-May-29 08:01N 25°58' W 079°40'612.2
2017-May-29 07:31N 26°00' W 079°34'127 5.6
2017-May-28 09:00N 25°12' W 077°24'18 2.6 180 / 101015.810.8 26.525.125.0
2017-May-28 01:54N 25°29' W 077°17'610.5
2017-May-28 01:18N 25°35' W 077°21'50 3.0
2017-May-27 09:00N 25°54' W 078°12'67 8.4 160 / 71016.810.8 27.026.325.0
2017-May-27 01:00N 26°09' W 079°25'5 9.2
2017-May-27 00:26N 26°06' W 079°30'5 9.6
2017-May-26 23:57N 26°04' W 079°34'410.0
2017-May-26 23:30N 26°01' W 079°39'510.5
2017-May-26 23:00N 25°58' W 079°44'510.4
2017-May-26 22:30N 25°56' W 079°48'510.9
2017-May-26 22:00N 25°52' W 079°53'510.8
2017-May-26 21:30N 25°49' W 079°58'510.7
2017-May-26 21:01N 25°46' W 080°03'5 9.3
2017-May-26 20:30N 25°46' W 080°08'2 3.8
2017-May-26 19:58N 25°47' W 080°10'0 0.0
2017-May-26 19:28N 25°47' W 080°10'0 0.0
2017-May-26 18:55N 25°47' W 080°10'0 0.0
2017-May-26 18:28N 25°47' W 080°10'0 0.0
2017-May-26 17:58N 25°47' W 080°10'0 0.0
2017-May-26 17:28N 25°47' W 080°10'0 0.0
2017-May-26 16:58N 25°47' W 080°10'0 0.0
2017-May-26 16:22N 25°47' W 080°10'0 0.0
2017-May-26 15:58N 25°47' W 080°10'0 0.0
2017-May-26 15:28N 25°47' W 080°10'0 0.0
2017-May-26 14:58N 25°47' W 080°10'0 0.0
2017-May-26 14:28N 25°47' W 080°10'0 0.0
2017-May-26 13:22N 25°47' W 080°10'0 0.0
2017-May-26 12:52N 25°47' W 080°10'0 0.0
2017-May-26 12:28N 25°47' W 080°10'0 0.0
2017-May-26 11:58N 25°47' W 080°10'0 0.0
2017-May-26 11:27N 25°47' W 080°10'1 1.6
2017-May-26 11:01N 25°47' W 080°11'3 5.2
2017-May-26 10:31N 25°46' W 080°08'611.3
2017-May-26 10:00N 25°47' W 080°02'5 9.7
2017-May-26 09:30N 25°45' W 079°57'612.4
2017-May-26 09:00N 25°41' W 079°52'713.2
2017-May-26 08:31N 25°35' W 079°48'714.8
2017-May-26 08:01N 25°28' W 079°50'4248.3
2017-May-26 08:00N 25°24' W 079°48'510.1 260 / 61014.610.8 27.124.924.0
2017-May-26 07:31N 25°21' W 079°52'80 3.7
2017-May-25 10:00N 24°30' W 081°00'6214.7 200 / 291010.010.8 27.323.724.0
2017-May-25 05:47N 25°09' W 080°07'514.1
2017-May-25 05:27N 25°12' W 080°04'613.9
2017-May-25 05:00N 25°17' W 079°60'714.0
2017-May-25 04:30N 25°23' W 079°55'714.1
2017-May-25 04:00N 25°28' W 079°50'714.9
2017-May-25 03:30N 25°34' W 079°45'815.8
2017-May-25 03:00N 25°40' W 079°39'1016.2
2017-May-25 02:23N 25°47' W 079°31'616.5
2017-May-25 02:00N 25°52' W 079°26'105 6.2
2017-May-24 09:00N 25°42' W 077°30'12 0.5 180 / 191013.010.8 26.222.725.0
2017-May-23 09:00N 25°30' W 077°30'11712.3 150 / 141014.610.8 25.321.225.0
2017-May-22 23:30N 25°59' W 079°36'611.5
2017-May-22 23:00N 25°56' W 079°42'611.6
2017-May-22 22:31N 25°54' W 079°47'611.5
2017-May-22 22:00N 25°51' W 079°53'510.7
2017-May-22 21:30N 25°49' W 079°59'612.6
2017-May-22 21:00N 25°47' W 080°05'4 8.6
2017-May-22 20:30N 25°46' W 080°10'1 2.2
2017-May-22 20:01N 25°47' W 080°11'0 0.0
2017-May-22 19:30N 25°47' W 080°11'0 0.0
2017-May-22 19:00N 25°47' W 080°11'0 0.0
2017-May-22 18:30N 25°47' W 080°11'0 0.0
2017-May-22 18:00N 25°47' W 080°11'0 0.0
2017-May-22 17:30N 25°47' W 080°11'0 0.0
2017-May-22 17:00N 25°47' W 080°11'0 0.0
2017-May-22 16:24N 25°47' W 080°11'0 0.0
2017-May-22 15:57N 25°47' W 080°11'0 0.0
2017-May-22 15:30N 25°47' W 080°11'0 0.0
2017-May-22 15:00N 25°47' W 080°11'0 0.0
2017-May-22 14:00N 25°47' W 080°11'0 0.0
2017-May-22 13:30N 25°47' W 080°11'0 0.0
2017-May-22 13:00N 25°47' W 080°11'0 0.0
2017-May-22 12:30N 25°47' W 080°11'0 0.0
2017-May-22 12:00N 25°47' W 080°11'0 0.0
2017-May-22 11:30N 25°47' W 080°11'0 0.0
2017-May-22 11:00N 25°47' W 080°11'1 2.9
2017-May-22 10:30N 25°46' W 080°09'4 8.9
2017-May-22 10:00N 25°46' W 080°04'611.3
2017-May-22 09:30N 25°49' W 079°59'611.7
2017-May-22 09:00N 25°52' W 079°53'611.8
2017-May-22 08:30N 25°55' W 079°47'612.1
2017-May-22 08:00N 25°57' W 079°41'612.4
2017-May-22 07:30N 25°60' W 079°35'3713.6
2017-May-22 04:48N 26°09' W 078°55'514.3
2017-May-22 04:28N 26°08' W 078°50'13 0.3
2017-May-20 07:00N 26°06' W 078°36'46 8.9 120 / 161016.410.8 25.721.625.0
2017-May-20 01:50N 26°10' W 079°27'411.2
2017-May-20 01:30N 26°07' W 079°29'7 9.6
2017-May-20 00:46N 26°03' W 079°35'3 8.5
2017-May-20 00:24N 26°01' W 079°38'3 8.4
2017-May-20 00:00N 25°60' W 079°41'4 8.4
2017-May-19 23:30N 25°58' W 079°46'4 8.3
2017-May-19 23:00N 25°56' W 079°50'4 8.7
2017-May-19 22:30N 25°53' W 079°54'4 8.8
2017-May-19 22:00N 25°51' W 079°58'5 9.6
2017-May-19 21:30N 25°48' W 080°02'510.5
2017-May-19 21:01N 25°45' W 080°07'4 7.6
2017-May-19 20:30N 25°47' W 080°11'0 0.3
2017-May-19 19:58N 25°47' W 080°11'0 0.0
2017-May-19 19:28N 25°47' W 080°11'0 0.0
2017-May-19 18:55N 25°47' W 080°11'0 0.0
2017-May-19 18:28N 25°47' W 080°11'0 0.0
2017-May-19 17:58N 25°47' W 080°11'0 0.0
2017-May-19 17:28N 25°47' W 080°11'0 0.0
2017-May-19 16:58N 25°47' W 080°11'  

Dump ship's entire track history